Time;durP1;ratioP1;P1;durP2;ratioP2;P2;SDS_P1;SDS_P2;PMS_P1;PMS_P2;Temp;Humidity;BMP_temperature;BMP_pressure;BME280_temperature;BME280_humidity;BME280_pressure;Samples;Min_cycle;Max_cycle;Signal;HPM_P1;HPM_P2
2021/11/02 00:02:08;;;;;;;0.70;0.50;;;7.70;99.90;;;;;;5051580;28;20448;-70
2021/11/02 00:04:34;;;;;;;0.70;0.47;;;7.70;99.90;;;;;;5052394;28;20460;-69
2021/11/02 00:06:59;;;;;;;0.70;0.50;;;7.80;99.90;;;;;;5051602;28;20241;-70
2021/11/02 00:09:28;;;;;;;0.70;0.50;;;7.80;99.90;;;;;;5051273;28;20194;-69
2021/11/02 00:11:54;;;;;;;0.70;0.50;;;7.80;99.90;;;;;;5050720;28;20582;-70
2021/11/02 00:14:22;;;;;;;0.70;0.50;;;7.80;99.90;;;;;;5051748;28;20513;-70
2021/11/02 00:16:54;;;;;;;0.70;0.50;;;7.70;99.90;;;;;;5048999;28;20214;-70
2021/11/02 00:19:20;;;;;;;0.70;0.50;;;7.70;99.90;;;;;;5049809;28;20512;-69
2021/11/02 00:21:47;;;;;;;1.67;1.47;;;7.70;99.90;;;;;;5049199;28;20545;-70
2021/11/02 00:24:37;;;;;;;0.70;0.50;;;7.70;99.90;;;;;;5049325;28;20171;-69
2021/11/02 00:26:59;;;;;;;0.70;0.50;;;7.70;99.90;;;;;;5048617;28;20857;-69
2021/11/02 00:29:24;;;;;;;0.70;0.50;;;7.70;99.90;;;;;;5050567;28;20433;-69
2021/11/02 00:31:50;;;;;;;0.70;0.50;;;7.70;99.90;;;;;;5062635;28;20178;-69
2021/11/02 00:34:15;;;;;;;0.70;0.50;;;7.70;99.90;;;;;;5051917;28;20183;-69
2021/11/02 00:36:41;;;;;;;0.70;0.50;;;7.80;99.90;;;;;;5049325;28;20202;-69
2021/11/02 00:39:06;;;;;;;0.70;0.50;;;7.80;99.90;;;;;;5051756;28;20624;-70
2021/11/02 00:41:33;;;;;;;0.70;0.50;;;7.80;99.90;;;;;;5051937;28;20261;-69
2021/11/02 00:43:58;;;;;;;0.70;0.50;;;7.80;99.90;;;;;;5050022;28;20183;-69
2021/11/02 00:46:32;;;;;;;0.70;0.50;;;7.80;99.90;;;;;;5034347;28;20487;-69
2021/11/02 00:48:58;;;;;;;1.10;0.77;;;7.80;99.90;;;;;;5050259;28;20175;-69
2021/11/02 00:51:25;;;;;;;0.70;0.60;;;7.80;99.90;;;;;;5050248;28;20464;-70
2021/11/02 00:53:51;;;;;;;0.70;0.50;;;7.80;99.90;;;;;;5047862;28;20476;-69
2021/11/02 00:56:16;;;;;;;0.70;0.50;;;7.80;99.90;;;;;;5046747;28;20437;-69
2021/11/02 00:58:42;;;;;;;0.70;0.57;;;7.80;99.90;;;;;;5050022;28;20261;-69
2021/11/02 01:01:07;;;;;;;0.70;0.50;;;7.80;99.90;;;;;;5049967;28;20183;-69
2021/11/02 01:03:34;;;;;;;0.70;0.50;;;7.80;99.90;;;;;;5049430;28;20293;-70
2021/11/02 01:06:00;;;;;;;0.70;0.50;;;7.80;99.90;;;;;;5050887;28;20209;-69
2021/11/02 01:08:26;;;;;;;0.70;0.50;;;7.90;99.90;;;;;;5050902;28;21019;-69
2021/11/02 01:10:52;;;;;;;0.70;0.50;;;7.90;99.90;;;;;;5049435;28;20443;-70
2021/11/02 01:13:19;;;;;;;0.70;0.50;;;7.90;99.90;;;;;;5050511;28;20198;-69
2021/11/02 01:15:45;;;;;;;0.70;0.50;;;8.00;99.90;;;;;;5049715;28;20422;-70
2021/11/02 01:18:11;;;;;;;0.70;0.60;;;7.90;99.90;;;;;;5048226;28;20460;-70
2021/11/02 01:20:37;;;;;;;0.70;0.50;;;7.90;99.90;;;;;;5051195;28;20436;-69
2021/11/02 01:23:03;;;;;;;0.70;0.50;;;7.90;99.90;;;;;;5054239;28;20444;-70
2021/11/02 01:25:29;;;;;;;0.70;0.50;;;7.80;99.90;;;;;;5052898;28;20825;-69
2021/11/02 01:27:54;;;;;;;0.70;0.50;;;7.80;99.90;;;;;;5053390;28;20567;-69
2021/11/02 01:30:20;;;;;;;0.70;0.50;;;7.70;99.90;;;;;;5049995;28;20624;-69
2021/11/02 01:32:46;;;;;;;0.70;0.50;;;7.50;99.90;;;;;;5050986;28;20181;-69
2021/11/02 01:35:12;;;;;;;0.70;0.50;;;7.40;99.90;;;;;;5053722;28;20209;-69
2021/11/02 01:37:41;;;;;;;0.80;0.50;;;7.40;99.90;;;;;;5054633;28;20198;-69
2021/11/02 01:40:12;;;;;;;0.70;0.50;;;7.20;99.90;;;;;;5055615;28;20417;-69
2021/11/02 01:42:39;;;;;;;1.33;1.20;;;7.20;99.90;;;;;;5053546;28;20441;-69
2021/11/02 01:45:06;;;;;;;0.70;0.50;;;7.00;99.90;;;;;;5053608;28;20602;-69
2021/11/02 01:47:33;;;;;;;0.70;0.50;;;6.90;99.90;;;;;;5052634;28;20445;-69
2021/11/02 01:50:00;;;;;;;0.70;0.50;;;6.80;99.90;;;;;;5054562;28;20428;-69
2021/11/02 01:52:26;;;;;;;0.70;0.50;;;6.80;99.90;;;;;;5051694;28;20433;-69
2021/11/02 01:54:51;;;;;;;0.70;0.50;;;6.70;99.90;;;;;;5051679;28;20464;-69
2021/11/02 01:57:17;;;;;;;0.70;0.50;;;6.70;99.90;;;;;;5052847;28;21046;-69
2021/11/02 01:59:43;;;;;;;0.70;0.50;;;6.70;99.90;;;;;;5053672;28;20640;-69
2021/11/02 02:02:17;;;;;;;0.70;0.50;;;6.60;99.90;;;;;;5053691;28;20880;-69
2021/11/02 02:04:49;;;;;;;0.70;0.50;;;6.60;99.90;;;;;;5064097;28;20493;-69
2021/11/02 02:07:29;;;;;;;0.70;0.50;;;6.40;99.90;;;;;;5062438;28;20445;-69
2021/11/02 02:10:07;;;;;;;6.33;1.00;;;6.40;99.90;;;;;;5052671;28;20968;-69
2021/11/02 02:12:41;;;;;;;0.70;0.50;;;6.30;99.90;;;;;;5051432;28;20429;-69
2021/11/02 02:15:26;;;;;;;0.70;0.50;;;6.40;99.90;;;;;;5050268;28;20444;-69
2021/11/02 02:18:13;;;;;;;0.70;0.50;;;6.30;99.90;;;;;;5051827;28;20456;-69
2021/11/02 02:20:41;;;;;;;0.70;0.50;;;6.40;99.90;;;;;;5048004;28;20424;-69
2021/11/02 02:23:33;;;;;;;0.70;0.50;;;6.50;99.90;;;;;;5059851;28;20418;-69
2021/11/02 02:26:26;;;;;;;0.70;0.50;;;6.50;99.90;;;;;;5049268;28;20876;-69
2021/11/02 02:28:56;;;;;;;0.70;0.50;;;6.50;99.90;;;;;;5041399;28;20519;-69
2021/11/02 02:31:23;;;;;;;0.70;0.50;;;6.40;99.90;;;;;;5051460;28;20487;-69
2021/11/02 02:33:49;;;;;;;0.70;0.50;;;6.40;99.90;;;;;;5050908;28;20429;-69
2021/11/02 02:36:16;;;;;;;0.70;0.50;;;6.40;99.90;;;;;;5052110;28;20429;-69
2021/11/02 02:38:45;;;;;;;0.70;0.50;;;6.40;99.90;;;;;;5053738;28;20432;-69
2021/11/02 02:41:11;;;;;;;0.70;0.50;;;6.40;99.90;;;;;;5052166;28;20429;-69
2021/11/02 02:43:41;;;;;;;1.27;1.13;;;6.40;99.90;;;;;;5050947;28;20440;-69
2021/11/02 02:46:08;;;;;;;0.70;0.50;;;6.40;99.90;;;;;;5051751;28;20496;-69
2021/11/02 02:48:35;;;;;;;0.70;0.50;;;6.50;99.90;;;;;;5052180;28;20440;-70
2021/11/02 02:51:02;;;;;;;0.70;0.50;;;6.60;99.90;;;;;;5050638;28;20859;-69
2021/11/02 02:53:30;;;;;;;0.70;0.50;;;6.60;99.90;;;;;;5052290;28;20413;-69
2021/11/02 02:56:00;;;;;;;0.70;0.50;;;6.70;99.90;;;;;;5049006;28;20440;-69
2021/11/02 02:58:32;;;;;;;0.70;0.50;;;6.80;99.90;;;;;;5052180;28;20472;-69
2021/11/02 03:00:59;;;;;;;0.70;0.50;;;6.80;99.90;;;;;;5052374;28;20455;-69
2021/11/02 03:03:24;;;;;;;0.70;0.43;;;6.80;99.90;;;;;;5044564;28;20429;-69
2021/11/02 03:05:53;;;;;;;0.70;0.50;;;6.80;99.90;;;;;;5052687;28;20461;-69
2021/11/02 03:08:20;;;;;;;0.70;0.50;;;6.90;99.90;;;;;;5051681;28;20488;-69
2021/11/02 03:10:46;;;;;;;0.70;0.50;;;6.90;99.90;;;;;;5039575;28;20877;-69
2021/11/02 03:13:15;;;;;;;0.70;0.50;;;6.90;99.90;;;;;;5050240;28;20469;-69
2021/11/02 03:57:10;;;;;;;0.70;0.50;;;7.00;99.90;;;;;;5049891;28;20841;-69
2021/11/02 04:35:08;;;;;;;0.70;0.50;;;7.30;99.90;;;;;;5050466;28;20440;-69
2021/11/02 04:48:49;;;;;;;0.77;0.70;;;7.00;99.90;;;;;;5050620;28;20787;-69
2021/11/02 05:08:13;;;;;;;0.70;0.50;;;6.90;99.90;;;;;;5055041;28;20526;-69
2021/11/02 05:51:43;;;;;;;0.70;0.50;;;6.60;99.90;;;;;;5049873;28;20421;-69
2021/11/02 05:56:59;;;;;;;0.70;0.50;;;6.60;99.90;;;;;;5051328;28;20460;-69
2021/11/02 06:02:14;;;;;;;0.70;0.50;;;6.70;99.90;;;;;;5051644;28;20499;-69
2021/11/02 06:08:32;;;;;;;0.70;0.50;;;6.80;99.90;;;;;;5048502;28;20448;-70
2021/11/02 06:29:50;;;;;;;0.70;0.50;;;7.00;99.90;;;;;;5049174;28;20428;-70
2021/11/02 06:32:29;;;;;;;0.70;0.50;;;7.00;99.90;;;;;;5051293;28;20440;-69
2021/11/02 06:35:09;;;;;;;0.70;0.50;;;7.00;99.90;;;;;;5047691;28;20413;-69
2021/11/02 06:41:51;;;;;;;0.70;0.50;;;7.10;99.90;;;;;;5048669;28;20396;-69
2021/11/02 06:46:13;;;;;;;0.70;0.50;;;7.30;99.90;;;;;;5049166;28;20526;-70
2021/11/02 06:51:20;;;;;;;0.70;0.50;;;7.40;99.90;;;;;;5053220;28;20505;-69
2021/11/02 06:59:38;;;;;;;0.70;0.50;;;7.50;99.90;;;;;;5051435;28;20480;-69
2021/11/02 07:25:01;;;;;;;0.70;0.50;;;7.80;99.90;;;;;;5051913;28;20793;-70
2021/11/02 07:27:54;;;;;;;0.70;0.50;;;7.70;99.90;;;;;;5052536;28;20443;-69
2021/11/02 08:48:26;;;;;;;0.70;0.50;;;10.10;99.90;;;;;;5053834;28;20455;-70
2021/11/02 08:50:53;;;;;;;0.70;0.50;;;10.00;99.90;;;;;;5053041;28;20427;-70
2021/11/02 08:53:20;;;;;;;0.70;0.50;;;10.00;99.90;;;;;;5052302;28;20505;-70
2021/11/02 08:55:46;;;;;;;0.70;0.50;;;9.80;99.90;;;;;;5054111;28;20850;-69
2021/11/02 08:58:12;;;;;;;0.70;0.50;;;9.80;99.90;;;;;;5050779;28;20449;-69
2021/11/02 09:00:40;;;;;;;0.70;0.60;;;9.80;99.90;;;;;;5051228;28;20417;-70
2021/11/02 09:03:08;;;;;;;0.70;0.50;;;9.80;99.90;;;;;;5049702;28;20247;-70
2021/11/02 09:05:35;;;;;;;0.70;0.50;;;9.90;99.90;;;;;;5050841;28;20897;-69
2021/11/02 09:08:03;;;;;;;0.70;0.50;;;9.80;99.90;;;;;;5051000;28;21081;-69
2021/11/02 09:10:29;;;;;;;0.70;0.50;;;9.70;99.90;;;;;;5050206;28;20424;-70
2021/11/02 09:13:01;;;;;;;0.70;0.50;;;9.70;99.90;;;;;;5051413;28;20405;-70
2021/11/02 09:15:31;;;;;;;0.90;0.60;;;9.60;99.90;;;;;;5049262;28;20757;-69
2021/11/02 09:18:01;;;;;;;0.70;0.53;;;9.60;99.90;;;;;;5050996;28;20583;-69
2021/11/02 09:20:27;;;;;;;0.70;0.50;;;9.70;99.90;;;;;;5051139;28;20453;-70
2021/11/02 09:22:53;;;;;;;0.70;0.50;;;9.60;99.90;;;;;;5051307;28;20506;-69
2021/11/02 09:25:19;;;;;;;0.70;0.50;;;9.60;99.90;;;;;;5050612;28;20195;-69
2021/11/02 09:27:47;;;;;;;0.80;0.63;;;9.60;99.90;;;;;;5051079;28;21135;-69
2021/11/02 09:30:14;;;;;;;0.70;0.50;;;9.50;99.90;;;;;;5050868;28;20423;-70
2021/11/02 09:32:45;;;;;;;0.70;0.50;;;9.40;99.90;;;;;;5051061;28;20409;-70
2021/11/02 09:35:12;;;;;;;0.70;0.50;;;9.50;99.90;;;;;;5051078;28;20481;-70
2021/11/02 09:37:42;;;;;;;0.70;0.50;;;9.50;99.90;;;;;;5051312;28;20819;-70
2021/11/02 09:40:38;;;;;;;0.70;0.50;;;9.50;99.90;;;;;;5050915;28;20421;-70
2021/11/02 09:43:22;;;;;;;0.70;0.50;;;9.60;99.90;;;;;;5054006;28;20421;-70
2021/11/02 09:46:00;;;;;;;0.70;0.53;;;9.60;99.90;;;;;;5054057;28;20449;-70
2021/11/02 09:48:35;;;;;;;0.70;0.50;;;9.80;99.90;;;;;;5053774;28;20441;-70
2021/11/02 09:51:38;;;;;;;0.70;0.50;;;9.80;99.90;;;;;;5054545;28;20455;-70
2021/11/02 09:54:27;;;;;;;0.70;0.60;;;9.80;99.90;;;;;;5048764;28;20888;-70
2021/11/02 09:57:28;;;;;;;1.27;0.87;;;9.90;99.90;;;;;;5053668;28;20473;-69
2021/11/02 10:00:02;;;;;;;0.70;0.60;;;9.80;99.90;;;;;;5054555;28;20445;-70
2021/11/02 10:03:07;;;;;;;0.70;0.50;;;9.80;99.90;;;;;;5054080;28;20780;-70
2021/11/02 10:05:55;;;;;;;1.63;1.53;;;9.80;99.90;;;;;;5052562;28;20457;-70
2021/11/02 10:08:43;;;;;;;1.27;0.67;;;9.80;99.90;;;;;;5053708;28;20499;-70
2021/11/02 10:11:22;;;;;;;0.70;0.50;;;9.90;99.90;;;;;;5054063;28;20890;-70
2021/11/02 10:13:52;;;;;;;0.80;0.70;;;9.90;99.90;;;;;;5053560;28;20910;-69
2021/11/02 10:16:42;;;;;;;1.20;1.10;;;9.90;99.90;;;;;;5053765;28;20413;-69
2021/11/02 10:19:29;;;;;;;0.70;0.50;;;9.70;99.90;;;;;;5053756;28;20425;-69
2021/11/02 10:22:32;;;;;;;0.70;0.50;;;9.70;99.90;;;;;;5053668;28;20421;-70
2021/11/02 10:25:24;;;;;;;0.70;0.50;;;9.70;99.90;;;;;;5049786;28;20503;-70
2021/11/02 10:28:17;;;;;;;0.83;0.60;;;9.80;99.90;;;;;;5053917;28;20433;-70
2021/11/02 10:30:55;;;;;;;0.70;0.50;;;9.80;99.90;;;;;;5053947;28;20522;-69
2021/11/02 10:33:35;;;;;;;0.70;0.50;;;9.80;99.90;;;;;;5053495;28;20413;-69
2021/11/02 10:36:17;;;;;;;0.70;0.60;;;9.70;99.90;;;;;;5053240;28;20509;-70
2021/11/02 10:39:10;;;;;;;0.70;0.50;;;9.80;99.90;;;;;;5052325;28;20491;-70
2021/11/02 10:41:43;;;;;;;0.70;0.50;;;9.80;99.90;;;;;;5068624;28;20417;-70
2021/11/02 10:44:40;;;;;;;0.80;0.80;;;9.80;99.90;;;;;;5051895;28;20421;-69
2021/11/02 10:47:20;;;;;;;0.73;0.60;;;9.80;99.90;;;;;;5053003;28;20506;-70
2021/11/02 10:50:03;;;;;;;0.70;0.50;;;9.80;99.90;;;;;;5043113;28;20416;-69
2021/11/02 10:52:33;;;;;;;0.70;0.50;;;9.80;99.90;;;;;;5053603;28;20787;-70
2021/11/02 10:55:07;;;;;;;0.70;0.50;;;10.10;99.90;;;;;;5052484;28;20441;-69
2021/11/02 10:57:36;;;;;;;1.00;0.70;;;10.20;99.90;;;;;;5052811;28;20475;-70
2021/11/02 11:00:10;;;;;;;0.70;0.50;;;10.40;99.90;;;;;;5053459;28;20426;-69
2021/11/02 11:02:39;;;;;;;0.70;0.50;;;10.50;99.90;;;;;;5052953;28;20966;-70
2021/11/02 11:05:07;;;;;;;0.70;0.50;;;10.70;99.90;;;;;;5052802;28;20452;-70
2021/11/02 11:07:41;;;;;;;0.90;0.70;;;10.60;99.90;;;;;;5053056;28;20436;-70
2021/11/02 11:10:10;;;;;;;0.70;0.60;;;10.50;99.90;;;;;;5052771;28;20439;-70
2021/11/02 11:12:38;;;;;;;0.70;0.50;;;10.50;99.90;;;;;;5052679;28;20493;-69
2021/11/02 11:15:06;;;;;;;0.70;0.50;;;10.60;99.90;;;;;;5050961;28;20467;-70
2021/11/02 11:17:34;;;;;;;0.80;0.60;;;10.70;99.90;;;;;;5052799;28;20540;-70
2021/11/02 11:20:09;;;;;;;0.70;0.50;;;10.90;99.90;;;;;;5051307;28;20445;-70
2021/11/02 11:22:41;;;;;;;0.70;0.50;;;11.20;99.90;;;;;;5052534;28;20524;-70
2021/11/02 11:25:25;;;;;;;0.70;0.60;;;11.20;99.90;;;;;;5053464;28;20817;-70
2021/11/02 11:27:57;;;;;;;1.10;0.90;;;11.20;99.90;;;;;;5077389;28;20444;-69
2021/11/02 11:30:32;;;;;;;0.80;0.80;;;11.70;99.90;;;;;;5061094;28;20424;-69
2021/11/02 11:32:59;;;;;;;0.80;0.70;;;12.00;99.90;;;;;;5061941;28;20462;-69
2021/11/02 11:35:25;;;;;;;1.00;0.70;;;12.10;99.90;;;;;;5062804;28;20424;-69
2021/11/02 11:37:53;;;;;;;0.80;0.77;;;12.10;99.90;;;;;;5063371;28;20519;-69
2021/11/02 11:40:21;;;;;;;0.70;0.50;;;12.30;99.90;;;;;;5056349;28;20175;-70
2021/11/02 11:42:49;;;;;;;0.70;0.50;;;12.50;99.90;;;;;;5052005;28;20429;-70
2021/11/02 11:45:17;;;;;;;0.70;0.60;;;12.50;99.90;;;;;;5052926;28;20453;-69
2021/11/02 11:47:43;;;;;;;0.90;0.80;;;12.40;99.90;;;;;;5050750;28;20444;-70
2021/11/02 11:50:21;;;;;;;0.70;0.50;;;12.30;99.90;;;;;;5049946;28;20421;-70
2021/11/02 11:52:50;;;;;;;0.70;0.50;;;12.20;99.90;;;;;;5052510;28;20771;-70
2021/11/02 11:55:28;;;;;;;0.70;0.50;;;12.00;99.90;;;;;;5051004;28;20422;-70
2021/11/02 11:58:04;;;;;;;1.30;1.20;;;11.60;99.90;;;;;;5050347;28;20457;-70
2021/11/02 12:00:30;;;;;;;0.70;0.50;;;11.30;99.90;;;;;;5051158;28;20421;-70
2021/11/02 12:03:08;;;;;;;5.40;0.80;;;11.10;99.90;;;;;;5051010;28;20495;-70
2021/11/02 12:05:42;;;;;;;0.70;0.50;;;11.10;99.90;;;;;;5066601;28;20459;-70
2021/11/02 12:08:15;;;;;;;0.70;0.50;;;11.00;99.90;;;;;;5051571;28;20433;-70
2021/11/02 12:10:42;;;;;;;0.70;0.50;;;10.90;99.90;;;;;;5038311;28;20416;-70
2021/11/02 12:13:13;;;;;;;0.70;0.50;;;11.00;99.90;;;;;;5053626;28;20424;-69
2021/11/02 12:16:00;;;;;;;0.70;0.50;;;10.80;99.90;;;;;;5060989;28;21123;-70
2021/11/02 12:18:28;;;;;;;0.70;0.50;;;10.80;99.90;;;;;;5061883;28;20999;-70
2021/11/02 12:20:55;;;;;;;3.53;3.33;;;10.70;99.90;;;;;;5060439;28;20779;-70
2021/11/02 12:23:37;;;;;;;0.70;0.50;;;10.80;99.90;;;;;;5051970;28;20440;-70
2021/11/02 12:26:04;;;;;;;1.43;1.33;;;10.80;99.90;;;;;;5051356;28;20452;-70
2021/11/02 12:28:42;;;;;;;0.70;0.70;;;10.90;99.90;;;;;;5051309;28;20438;-70
2021/11/02 12:31:11;;;;;;;0.70;0.50;;;10.90;99.90;;;;;;5051002;28;20504;-70
2021/11/02 12:33:42;;;;;;;0.80;0.80;;;10.90;99.90;;;;;;5050974;28;20474;-70
2021/11/02 12:36:10;;;;;;;0.80;0.80;;;11.10;99.90;;;;;;5050807;28;20494;-70
2021/11/02 12:38:40;;;;;;;1.43;1.33;;;11.10;99.90;;;;;;5050922;28;20963;-70
2021/11/02 12:41:23;;;;;;;0.70;0.50;;;11.10;99.90;;;;;;5050730;28;20417;-71
2021/11/02 12:44:07;;;;;;;0.80;0.67;;;11.00;99.90;;;;;;5037119;28;20410;-70
2021/11/02 12:46:35;;;;;;;0.70;0.50;;;11.50;99.90;;;;;;5050154;28;20469;-70
2021/11/02 12:49:06;;;;;;;0.70;0.60;;;13.40;99.90;;;;;;5049456;28;20470;-70
2021/11/02 12:51:38;;;;;;;0.90;0.70;;;15.70;99.90;;;;;;5051338;28;20429;-70
2021/11/02 12:54:08;;;;;;;0.70;0.60;;;17.70;99.90;;;;;;5050779;28;20440;-71
2021/11/02 12:56:36;;;;;;;0.90;0.67;;;17.70;99.90;;;;;;5050767;28;20821;-70
2021/11/02 12:59:18;;;;;;;0.80;0.60;;;17.10;99.90;;;;;;5051312;28;20418;-70
2021/11/02 13:01:45;;;;;;;3.13;1.47;;;16.20;99.90;;;;;;5063072;28;20437;-70
2021/11/02 13:04:12;;;;;;;0.70;0.60;;;15.10;99.90;;;;;;5060955;28;20750;-70
2021/11/02 13:06:51;;;;;;;0.83;0.80;;;14.30;99.90;;;;;;5062265;28;20540;-70
2021/11/02 13:09:22;;;;;;;1.33;0.90;;;13.70;99.90;;;;;;5061933;28;20437;-69
2021/11/02 13:12:03;;;;;;;0.70;0.60;;;13.10;99.90;;;;;;5062070;28;20512;-69
2021/11/02 13:14:43;;;;;;;0.70;0.50;;;12.90;99.90;;;;;;5061079;28;20516;-71
2021/11/02 13:17:10;;;;;;;0.70;0.50;;;12.40;99.90;;;;;;5064367;28;20444;-70
2021/11/02 13:19:42;;;;;;;1.20;1.10;;;12.20;99.90;;;;;;5067718;28;20428;-70
2021/11/02 13:22:15;;;;;;;0.70;0.60;;;12.00;99.90;;;;;;5066625;28;20583;-70
2021/11/02 13:25:00;;;;;;;0.80;0.70;;;11.90;99.90;;;;;;5066965;28;20428;-70
2021/11/02 13:27:33;;;;;;;1.10;0.60;;;11.80;99.90;;;;;;5066741;28;20425;-69
2021/11/02 13:30:21;;;;;;;0.70;0.50;;;11.60;99.90;;;;;;5066028;28;20409;-69
2021/11/02 13:32:58;;;;;;;0.70;0.50;;;11.60;99.90;;;;;;5065812;28;20857;-70
2021/11/02 13:35:48;;;;;;;0.70;0.50;;;11.60;99.90;;;;;;5058410;28;20417;-70
2021/11/02 13:38:38;;;;;;;0.70;0.50;;;11.40;99.90;;;;;;5054247;28;20437;-70
2021/11/02 13:41:11;;;;;;;0.70;0.63;;;11.40;99.90;;;;;;5054422;28;20506;-70
2021/11/02 13:43:42;;;;;;;1.03;0.70;;;11.20;99.90;;;;;;5054072;28;20406;-70
2021/11/02 13:46:10;;;;;;;0.70;0.50;;;11.10;99.90;;;;;;5053518;28;20449;-70
2021/11/02 13:48:37;;;;;;;0.70;0.50;;;11.10;99.90;;;;;;5054237;28;20496;-70
2021/11/02 13:51:04;;;;;;;0.80;0.60;;;11.10;99.90;;;;;;5054444;28;20409;-70
2021/11/02 13:53:34;;;;;;;0.70;0.50;;;10.90;99.90;;;;;;5046966;28;20467;-70
2021/11/02 13:56:02;;;;;;;0.70;0.50;;;11.00;99.90;;;;;;5053994;28;20906;-70
2021/11/02 13:58:27;;;;;;;0.70;0.50;;;10.90;99.90;;;;;;5045963;28;20488;-70
2021/11/02 14:00:53;;;;;;;0.80;0.60;;;10.70;99.90;;;;;;5055264;28;20911;-69
2021/11/02 14:03:26;;;;;;;0.70;0.50;;;10.30;99.90;;;;;;5054013;28;20543;-70
2021/11/02 14:05:54;;;;;;;0.70;0.50;;;10.00;99.90;;;;;;5053610;28;20671;-70
2021/11/02 14:08:22;;;;;;;0.70;0.50;;;9.90;99.90;;;;;;5053923;28;20452;-70
2021/11/02 14:10:53;;;;;;;0.70;0.50;;;9.90;99.90;;;;;;5054305;28;20409;-70
2021/11/02 14:13:43;;;;;;;0.70;0.50;;;10.00;99.90;;;;;;5054185;28;20504;-70
2021/11/02 14:16:10;;;;;;;0.70;0.50;;;10.30;99.90;;;;;;5052061;28;20946;-70
2021/11/02 14:18:39;;;;;;;0.70;0.50;;;10.30;99.90;;;;;;5051745;28;20973;-70
2021/11/02 14:21:05;;;;;;;0.70;0.50;;;10.50;99.90;;;;;;5054446;28;20417;-70
2021/11/02 14:23:30;;;;;;;0.70;0.50;;;10.60;99.90;;;;;;5054098;28;20498;-70
2021/11/02 14:26:34;;;;;;;0.70;0.50;;;10.70;99.90;;;;;;5053336;28;20544;-70
2021/11/02 14:29:03;;;;;;;0.70;0.50;;;10.90;99.90;;;;;;5051060;28;20167;-70
2021/11/02 14:31:34;;;;;;;0.70;0.50;;;11.00;99.90;;;;;;5054393;28;20483;-70
2021/11/02 14:34:00;;;;;;;0.70;0.50;;;10.90;99.90;;;;;;5053758;28;20459;-70
2021/11/02 14:36:38;;;;;;;0.70;0.50;;;10.90;99.90;;;;;;5053602;28;20500;-70
2021/11/02 14:39:04;;;;;;;0.70;0.50;;;10.90;99.90;;;;;;5053746;28;20748;-70
2021/11/02 14:41:32;;;;;;;0.70;0.50;;;10.80;99.90;;;;;;5049243;28;20422;-70
2021/11/02 14:44:24;;;;;;;0.70;0.50;;;10.60;99.90;;;;;;5054287;28;20763;-70
2021/11/02 14:46:51;;;;;;;0.70;0.50;;;10.30;99.90;;;;;;5052702;28;20460;-70
2021/11/02 14:49:41;;;;;;;0.70;0.50;;;10.10;99.90;;;;;;5054407;28;20425;-70
2021/11/02 14:52:08;;;;;;;0.70;0.50;;;10.10;99.90;;;;;;5049263;28;20505;-70
2021/11/02 14:54:52;;;;;;;0.70;0.50;;;10.00;99.90;;;;;;5054171;28;20413;-70
2021/11/02 14:57:18;;;;;;;1.23;1.13;;;9.80;99.90;;;;;;5042125;28;20493;-70
2021/11/02 14:59:57;;;;;;;0.70;0.57;;;9.80;99.90;;;;;;5051851;28;20453;-70
2021/11/02 15:02:43;;;;;;;0.70;0.50;;;9.70;99.90;;;;;;5054084;28;20174;-70
2021/11/02 15:05:20;;;;;;;0.70;0.50;;;9.70;99.90;;;;;;5053127;28;20814;-70
2021/11/02 15:07:47;;;;;;;0.70;0.50;;;9.70;99.90;;;;;;5052609;28;20444;-70
2021/11/02 15:10:18;;;;;;;0.70;0.50;;;9.70;99.90;;;;;;5051961;28;20417;-70
2021/11/02 15:12:44;;;;;;;0.70;0.50;;;9.70;99.90;;;;;;5053748;28;20417;-70
2021/11/02 15:15:10;;;;;;;0.70;0.50;;;9.60;99.90;;;;;;5052068;28;20413;-70
2021/11/02 15:17:36;;;;;;;0.70;0.50;;;9.60;99.90;;;;;;5050026;28;20444;-70
2021/11/02 15:20:02;;;;;;;0.70;0.50;;;9.60;99.90;;;;;;5049528;28;20257;-70
2021/11/02 15:22:30;;;;;;;0.70;0.50;;;9.60;99.90;;;;;;5053261;28;20496;-70
2021/11/02 15:25:02;;;;;;;0.70;0.50;;;9.60;99.90;;;;;;5052471;28;20441;-70
2021/11/02 15:27:36;;;;;;;0.70;0.50;;;9.70;99.90;;;;;;5052403;28;20457;-71
2021/11/02 15:30:10;;;;;;;0.70;0.50;;;9.70;99.90;;;;;;5052716;28;20859;-71
2021/11/02 15:32:41;;;;;;;0.70;0.60;;;9.70;99.90;;;;;;5052132;28;20444;-71
2021/11/02 15:35:13;;;;;;;0.70;0.50;;;9.70;99.90;;;;;;5051943;28;20922;-71
2021/11/02 15:37:43;;;;;;;2.60;0.83;;;9.70;99.90;;;;;;5052478;28;20926;-71
2021/11/02 15:40:13;;;;;;;1.00;0.90;;;9.70;99.90;;;;;;5052022;28;20431;-71
2021/11/02 15:42:56;;;;;;;1.00;0.60;;;9.70;99.90;;;;;;5048850;28;20463;-71
2021/11/02 15:45:30;;;;;;;0.70;0.50;;;9.80;99.90;;;;;;5052031;28;20506;-71
2021/11/02 15:48:05;;;;;;;0.70;0.60;;;9.80;99.90;;;;;;5051982;28;20487;-71
2021/11/02 15:50:31;;;;;;;1.50;1.30;;;9.70;99.90;;;;;;5052330;28;20974;-71
2021/11/02 15:53:02;;;;;;;5.30;2.40;;;9.70;99.90;;;;;;5052025;28;20996;-71
2021/11/02 15:55:29;;;;;;;1.30;0.77;;;9.70;99.90;;;;;;5038087;28;20983;-71
2021/11/02 15:58:06;;;;;;;0.70;0.60;;;9.70;99.90;;;;;;5051787;28;20558;-71
2021/11/02 16:00:43;;;;;;;1.23;0.90;;;9.70;99.90;;;;;;5051842;28;20417;-73
2021/11/02 16:03:09;;;;;;;0.70;0.50;;;9.50;99.90;;;;;;5052013;28;20580;-71
2021/11/02 16:05:36;;;;;;;0.70;0.50;;;9.40;99.90;;;;;;5051622;28;20498;-72
2021/11/02 16:08:17;;;;;;;0.70;0.47;;;9.50;99.90;;;;;;5050650;28;20444;-71
2021/11/02 16:10:43;;;;;;;0.70;0.50;;;9.40;99.90;;;;;;5051854;28;20766;-72
2021/11/02 16:13:10;;;;;;;0.70;0.50;;;9.30;99.90;;;;;;5050488;28;20410;-71
2021/11/02 16:15:38;;;;;;;0.70;0.50;;;9.30;99.90;;;;;;5050174;28;20437;-71
2021/11/02 16:18:14;;;;;;;0.70;0.50;;;9.30;99.90;;;;;;5051845;28;20446;-71
2021/11/02 16:20:41;;;;;;;0.70;0.50;;;9.30;99.90;;;;;;5051819;28;20421;-71
2021/11/02 16:23:14;;;;;;;0.70;0.50;;;9.20;99.90;;;;;;5051471;28;20512;-71
2021/11/02 16:25:42;;;;;;;0.70;0.50;;;9.10;99.90;;;;;;5067184;28;20488;-71
2021/11/02 16:28:18;;;;;;;0.83;0.83;;;9.10;99.90;;;;;;5051881;28;20530;-71
2021/11/02 16:30:48;;;;;;;0.70;0.50;;;9.10;99.90;;;;;;5051806;28;20500;-71
2021/11/02 16:33:15;;;;;;;0.90;0.87;;;9.00;99.90;;;;;;5051960;28;20437;-71
2021/11/02 16:35:47;;;;;;;2.63;1.53;;;9.00;99.90;;;;;;5051465;28;20413;-71
2021/11/02 16:38:32;;;;;;;4.90;1.13;;;9.00;99.90;;;;;;5051604;28;20487;-71
2021/11/02 16:40:57;;;;;;;0.70;0.50;;;9.00;99.90;;;;;;5050506;28;20414;-71
2021/11/02 16:43:26;;;;;;;0.70;0.50;;;8.90;99.90;;;;;;5051521;28;20418;-71
2021/11/02 16:45:52;;;;;;;0.70;0.50;;;8.90;99.90;;;;;;5051329;28;20196;-71
2021/11/02 16:48:18;;;;;;;0.70;0.50;;;8.90;99.90;;;;;;5050591;28;20437;-71
2021/11/02 16:50:50;;;;;;;0.70;0.50;;;8.90;99.90;;;;;;5050683;28;20417;-71
2021/11/02 16:53:22;;;;;;;0.70;0.50;;;8.90;99.90;;;;;;5055508;28;20167;-71
2021/11/02 16:55:47;;;;;;;0.70;0.50;;;9.00;99.90;;;;;;5055366;28;20515;-71
2021/11/02 16:58:33;;;;;;;0.70;0.60;;;8.90;99.90;;;;;;5051351;28;20545;-71
2021/11/02 17:01:15;;;;;;;0.80;0.70;;;8.90;99.90;;;;;;5051936;28;20175;-71
2021/11/02 17:03:42;;;;;;;0.70;0.50;;;8.90;99.90;;;;;;5040705;28;20969;-71
2021/11/02 17:06:13;;;;;;;0.70;0.50;;;9.00;99.90;;;;;;5055073;28;20449;-71
2021/11/02 17:08:46;;;;;;;0.70;0.50;;;8.90;99.90;;;;;;5054016;28;20417;-71
2021/11/02 17:11:19;;;;;;;0.70;0.50;;;9.00;99.90;;;;;;5054875;28;20413;-71
2021/11/02 17:13:47;;;;;;;1.07;0.93;;;9.00;99.90;;;;;;5054826;28;20466;-71
2021/11/02 17:16:21;;;;;;;0.70;0.50;;;9.00;99.90;;;;;;5053549;28;20421;-71
2021/11/02 17:18:53;;;;;;;0.70;0.60;;;9.00;99.90;;;;;;5055180;28;20860;-71
2021/11/02 17:21:21;;;;;;;0.80;0.73;;;9.00;99.90;;;;;;5053486;28;20436;-71
2021/11/02 17:23:48;;;;;;;2.07;1.97;;;9.00;99.90;;;;;;5053488;28;20448;-71
2021/11/02 17:26:15;;;;;;;0.70;0.60;;;9.00;99.90;;;;;;5053417;28;20456;-71
2021/11/02 17:28:45;;;;;;;0.70;0.60;;;9.00;99.90;;;;;;5053577;28;20429;-71
2021/11/02 17:31:11;;;;;;;0.70;0.50;;;9.10;99.90;;;;;;5052809;28;20414;-71
2021/11/02 17:33:37;;;;;;;1.60;1.50;;;9.00;99.90;;;;;;5053952;28;20416;-71
2021/11/02 17:36:06;;;;;;;0.70;0.50;;;9.10;99.90;;;;;;5052564;28;20780;-71
2021/11/02 17:38:42;;;;;;;0.70;0.60;;;9.00;99.90;;;;;;5053790;28;20476;-71
2021/11/02 17:41:09;;;;;;;1.43;1.17;;;9.00;99.90;;;;;;5054249;28;20417;-71
2021/11/02 17:43:37;;;;;;;0.70;0.50;;;9.00;99.90;;;;;;5052791;28;20751;-71
2021/11/02 17:46:05;;;;;;;0.70;0.47;;;9.00;99.90;;;;;;5053686;28;20461;-71
2021/11/02 17:48:31;;;;;;;1.40;1.10;;;9.00;99.90;;;;;;5038548;28;20518;-71
2021/11/02 17:50:57;;;;;;;0.90;0.70;;;9.00;99.90;;;;;;5054440;28;20456;-71
2021/11/02 17:53:24;;;;;;;1.13;0.80;;;8.90;99.90;;;;;;5054444;28;20481;-71
2021/11/02 17:55:50;;;;;;;2.20;1.10;;;8.90;99.90;;;;;;5052580;28;20444;-71
2021/11/02 17:58:22;;;;;;;0.90;0.80;;;8.80;99.90;;;;;;5053466;28;20467;-71
2021/11/02 18:00:50;;;;;;;0.70;0.50;;;8.70;99.90;;;;;;5054303;28;20479;-71
2021/11/02 18:03:15;;;;;;;0.70;0.50;;;8.70;99.90;;;;;;5052111;28;20418;-71
2021/11/02 18:05:41;;;;;;;0.70;0.70;;;8.60;99.90;;;;;;5052937;28;20478;-71
2021/11/02 18:08:09;;;;;;;0.70;0.50;;;8.60;99.90;;;;;;5052884;28;20891;-71